SEAM/ATF METAR and TAF weather

Enter ICAO airport designator
Station Type Date Time Source
SEAM METAR 2019/12/11 21:00 UTC NOAA

SEAM 112100Z 10006KT 9999 BKN020 24/11 Q1023


Station Type Date Time Source
SEAM Decoded METAR 2019/12/11 21:00 UTC NOAA

Ambato / Chachoan, Ecuador (SEAM) 01-12S 078-34W
Dec 11, 2019 - 04:00 PM EST / 2019.12.11 2100 UTC
Wind: from the E (100 degrees) at 7 MPH (6 KT):0
Visibility: greater than 7 mile(s):0
Sky conditions: mostly cloudy
Temperature: 75 F (24 C)
Dew Point: 51 F (11 C)
Relative Humidity: 43%
Pressure (altimeter): 30.21 in. Hg (1023 hPa)
ob: SEAM 112100Z 10006KT 9999 BKN020 24/11 Q1023
cycle: 21

Station Type Date Time Source
SEAM TAF UTC NOAA

Error!

Example: see airport list